Time;durP1;ratioP1;P1;durP2;ratioP2;P2;SDS_P1;SDS_P2;PMS_P1;PMS_P2;Temp;Humidity;BMP_temperature;BMP_pressure;BME280_temperature;BME280_humidity;BME280_pressure;Samples;Min_cycle;Max_cycle;Signal;HPM_P1;HPM_P2
2021/12/06 00:00:50;;;;;;;17.57;14.80;;;0.10;99.90;;;-1.49;100.00;97269.72;5040913;28;20497;-80
2021/12/06 00:03:23;;;;;;;18.83;14.77;;;0.20;99.90;;;-1.49;100.00;97275.84;5041855;28;20478;-79
2021/12/06 00:05:50;;;;;;;22.43;15.77;;;0.20;99.90;;;-1.29;100.00;97275.59;5044908;28;20519;-78
2021/12/06 00:08:21;;;;;;;18.47;14.90;;;0.30;99.90;;;-1.28;100.00;97279.94;5053542;28;20447;-79
2021/12/06 00:10:50;;;;;;;16.13;13.47;;;0.30;99.90;;;-1.34;100.00;97280.56;5035033;28;20487;-79
2021/12/06 00:13:20;;;;;;;18.53;14.23;;;0.30;99.90;;;-1.32;100.00;97282.06;5046273;28;20446;-79
2021/12/06 00:15:49;;;;;;;17.40;13.03;;;0.40;99.90;;;-1.37;100.00;97281.69;5046463;28;20777;-78
2021/12/06 00:18:18;;;;;;;15.63;13.33;;;0.30;99.90;;;-1.43;100.00;97264.63;5018717;28;20515;-79
2021/12/06 00:20:46;;;;;;;15.87;12.57;;;0.40;99.90;;;-1.46;100.00;97251.66;5027405;28;20466;-77
2021/12/06 00:23:13;;;;;;;17.40;13.40;;;0.40;99.90;;;-1.25;100.00;97292.88;5029871;28;20451;-78
2021/12/06 00:25:42;;;;;;;16.97;12.50;;;0.40;99.90;;;-1.31;100.00;97256.38;5026622;28;20541;-78
2021/12/06 00:28:09;;;;;;;14.93;12.93;;;0.50;99.90;;;-1.21;100.00;97261.56;5024116;28;21285;-79
2021/12/06 00:30:36;;;;;;;14.60;12.63;;;0.50;99.90;;;-1.16;100.00;97275.19;5031953;28;20562;-78
2021/12/06 00:33:03;;;;;;;14.80;12.90;;;0.50;99.90;;;-1.14;100.00;97254.63;5023380;28;20482;-78
2021/12/06 00:35:30;;;;;;;15.00;11.90;;;0.60;99.90;;;-0.99;100.00;97281.34;5033116;28;20451;-78
2021/12/06 00:38:00;;;;;;;16.30;13.20;;;0.60;99.90;;;-1.19;100.00;97276.31;5030444;28;20492;-79
2021/12/06 00:40:33;;;;;;;14.53;11.80;;;0.50;99.90;;;-1.10;100.00;97289.63;5022162;28;20517;-78
2021/12/06 00:43:03;;;;;;;15.40;12.07;;;0.50;99.90;;;-1.14;100.00;97289.09;5026781;28;20479;-79
2021/12/06 00:45:30;;;;;;;14.27;11.13;;;0.50;99.90;;;-1.25;100.00;97265.50;5031561;28;20457;-79
2021/12/06 00:47:58;;;;;;;16.47;12.50;;;0.50;99.90;;;-1.05;100.00;97288.16;5027325;28;20803;-81
2021/12/06 00:50:30;;;;;;;15.70;11.90;;;0.50;99.90;;;-1.21;100.00;97283.59;5038477;28;20557;-81
2021/12/06 00:52:58;;;;;;;18.80;13.67;;;0.60;99.90;;;-1.07;100.00;97300.72;5036555;28;20463;-80
2021/12/06 00:55:26;;;;;;;17.63;12.60;;;0.50;99.90;;;-1.26;100.00;97270.00;5035695;28;20517;-79
2021/12/06 00:57:55;;;;;;;16.10;12.50;;;0.50;99.90;;;-1.21;100.00;97272.19;5030419;28;20586;-79
2021/12/06 01:00:29;;;;;;;17.00;13.43;;;0.60;99.90;;;-1.18;100.00;97293.88;5031507;28;20460;-79
2021/12/06 01:02:58;;;;;;;14.13;11.53;;;0.60;99.90;;;-1.17;100.00;97300.84;5030422;28;20509;-82
2021/12/06 01:05:26;;;;;;;13.77;11.40;;;0.50;99.90;;;-1.11;100.00;97287.97;5031755;28;20487;-78
2021/12/06 01:07:54;;;;;;;17.57;13.20;;;0.60;99.90;;;-1.00;100.00;97307.06;5029824;28;20482;-79
2021/12/06 01:10:23;;;;;;;15.70;13.77;;;0.60;99.90;;;-1.17;100.00;97308.78;5029182;28;21251;-79
2021/12/06 01:12:51;;;;;;;14.90;12.80;;;0.50;99.90;;;-1.16;100.00;97291.91;5030810;28;20952;-78
2021/12/06 01:15:21;;;;;;;15.30;13.53;;;0.60;99.90;;;-1.02;100.00;97302.91;5033891;28;20463;-79
2021/12/06 01:17:50;;;;;;;16.60;12.90;;;0.60;99.90;;;-1.21;100.00;97288.91;5035780;28;22210;-78
2021/12/06 01:20:23;;;;;;;17.13;13.00;;;0.60;99.90;;;-1.03;100.00;97320.66;5030778;28;20944;-78
2021/12/06 01:22:55;;;;;;;17.90;12.40;;;0.60;99.90;;;-0.96;100.00;97307.59;5024943;28;20474;-79
2021/12/06 01:25:31;;;;;;;15.93;12.40;;;0.60;99.90;;;-0.80;100.00;97321.91;5032511;28;20455;-79
2021/12/06 01:31:05;;;;;;;15.77;12.30;;;0.80;99.90;;;-1.74;100.00;97208.63;5027027;28;20499;-78
2021/12/06 01:34:02;;;;;;;15.07;12.13;;;0.70;99.90;;;-0.86;100.00;97329.50;5034964;28;20815;-78
2021/12/06 01:39:17;;;;;;;13.17;10.90;;;0.80;99.90;;;-0.72;99.73;97322.75;5016206;28;21179;-78
2021/12/06 01:41:51;;;;;;;12.97;10.47;;;0.80;99.90;;;-0.63;99.84;97334.22;5033735;28;20814;-78
2021/12/06 01:44:21;;;;;;;12.43;10.20;;;0.90;99.90;;;-0.74;99.21;97315.94;5030438;28;20526;-78
2021/12/06 01:46:52;;;;;;;12.67;11.30;;;0.90;99.90;;;-0.63;99.48;97333.38;5031962;28;20462;-79
2021/12/06 01:49:24;;;;;;;12.17;9.77;;;0.90;99.90;;;-0.53;99.65;97338.53;5043272;28;20489;-78
2021/12/06 01:51:54;;;;;;;11.00;9.80;;;0.90;99.90;;;-1.40;98.94;97215.75;5038229;28;21060;-78
2021/12/06 01:54:22;;;;;;;11.50;9.83;;;0.90;99.90;;;-0.75;99.26;97301.00;5008304;28;20880;-77
2021/12/06 01:56:50;;;;;;;10.47;9.40;;;1.00;99.90;;;-0.65;99.37;97324.75;5044373;28;20455;-78
2021/12/06 01:59:20;;;;;;;10.63;9.53;;;0.90;99.50;;;-0.55;98.92;97327.25;5033882;28;20456;-79
2021/12/06 02:01:48;;;;;;;12.50;10.00;;;1.00;99.90;;;-0.48;98.32;97321.16;5039529;28;20507;-78
2021/12/06 02:04:17;;;;;;;12.27;9.70;;;1.00;99.20;;;-0.54;98.26;97326.28;5011951;28;20443;-77
2021/12/06 02:06:45;;;;;;;11.37;9.93;;;1.00;98.00;;;-0.73;98.57;97312.28;5037795;28;20448;-79
2021/12/06 02:09:18;;;;;;;11.10;9.70;;;1.10;97.70;;;-0.46;98.85;97331.63;5036985;28;20505;-79
2021/12/06 02:11:46;;;;;;;13.80;10.20;;;1.10;97.90;;;-0.55;98.71;97324.63;5010577;28;20479;-78
2021/12/06 02:14:32;;;;;;;13.23;10.47;;;1.10;97.70;;;-0.47;99.17;97328.13;5026401;28;20491;-78
2021/12/06 02:17:08;;;;;;;13.90;10.40;;;1.10;97.70;;;-0.60;98.71;97328.59;5031000;28;20494;-78
2021/12/06 02:19:41;;;;;;;12.20;10.20;;;1.00;97.60;;;-0.48;99.02;97328.28;5026396;28;20494;-78
2021/12/06 02:22:14;;;;;;;12.37;10.13;;;1.10;99.90;;;-0.46;98.59;97319.16;5046712;28;20535;-79
2021/12/06 02:24:41;;;;;;;12.13;10.87;;;1.10;96.90;;;-0.54;98.73;97326.28;5037458;28;20510;-78
2021/12/06 02:27:11;;;;;;;12.83;10.80;;;1.10;96.70;;;-0.66;99.42;97323.94;5021579;28;20485;-79
2021/12/06 02:29:42;;;;;;;11.43;10.23;;;1.00;97.10;;;-0.75;99.60;97308.97;5032316;28;20455;-78
2021/12/06 02:32:12;;;;;;;13.50;9.30;;;1.00;99.10;;;-0.46;99.45;97327.13;5029842;28;21005;-77
2021/12/06 02:34:40;;;;;;;11.87;9.27;;;1.00;99.90;;;-0.53;98.96;97333.25;5034430;28;20470;-77
2021/12/06 02:37:09;;;;;;;12.50;9.90;;;1.10;97.30;;;-0.78;99.36;97323.38;5041236;28;20588;-77
2021/12/06 02:39:37;;;;;;;15.43;11.03;;;1.00;97.70;;;-0.80;100.00;97335.16;5038061;28;20450;-78
2021/12/06 02:42:07;;;;;;;13.27;10.07;;;0.90;99.90;;;-0.62;99.88;97324.44;5038286;28;20522;-78
2021/12/06 02:44:34;;;;;;;12.63;10.20;;;1.00;99.90;;;-0.70;99.97;97349.09;5029124;28;20498;-78
2021/12/06 02:47:01;;;;;;;12.13;10.20;;;0.90;99.20;;;-0.67;100.00;97343.50;5034168;28;20555;-78
2021/12/06 02:49:29;;;;;;;15.03;11.27;;;0.90;99.90;;;-0.77;100.00;97326.88;5025449;28;20874;-79
2021/12/06 02:51:57;;;;;;;14.27;11.43;;;0.90;99.90;;;-0.70;99.96;97335.84;5031309;28;20467;-78
2021/12/06 02:54:26;;;;;;;14.23;11.13;;;0.90;99.90;;;-0.67;100.00;97343.50;5027459;28;20798;-78
2021/12/06 02:57:06;;;;;;;14.80;11.70;;;0.90;99.90;;;-0.93;100.00;97328.47;5027836;28;20478;-79
2021/12/06 02:59:34;;;;;;;14.07;10.90;;;0.90;99.90;;;-0.73;100.00;97344.13;5041328;28;20536;-79
2021/12/06 03:02:06;;;;;;;13.73;11.00;;;0.90;99.90;;;-0.73;99.77;97322.91;5018065;28;20460;-79
2021/12/06 03:04:34;;;;;;;15.90;11.73;;;1.00;99.90;;;-0.70;99.38;97348.28;5030012;28;20454;-78
2021/12/06 03:07:04;;;;;;;13.23;10.50;;;0.90;99.40;;;-0.73;99.09;97333.53;5027876;28;20900;-77
2021/12/06 03:09:39;;;;;;;16.50;10.90;;;1.00;99.90;;;-0.84;98.99;97332.00;5031090;28;20543;-77
2021/12/06 03:12:12;;;;;;;14.90;11.13;;;1.00;99.20;;;-0.57;99.08;97356.63;5028002;28;20476;-77
2021/12/06 03:14:46;;;;;;;15.30;10.67;;;1.00;99.90;;;-0.72;98.80;97353.75;5020998;28;20460;-77
2021/12/06 03:17:19;;;;;;;14.10;11.23;;;1.00;99.40;;;-0.69;99.46;97366.69;5023674;28;20455;-78
2021/12/06 03:19:47;;;;;;;14.20;10.40;;;0.90;99.90;;;-0.80;99.67;97364.34;5036022;28;20849;-78
2021/12/06 03:22:16;;;;;;;13.13;11.30;;;0.80;99.90;;;-0.82;100.00;97376.94;5042798;28;20459;-78
2021/12/06 03:24:45;;;;;;;14.20;12.73;;;0.80;99.90;;;-0.80;99.42;97359.03;5062046;28;20473;-79
2021/12/06 03:27:17;;;;;;;15.07;12.07;;;0.80;99.90;;;-0.70;100.00;97374.81;5049348;28;20487;-79
2021/12/06 03:29:46;;;;;;;17.40;13.00;;;0.80;99.90;;;-0.70;99.92;97386.25;5016063;28;20508;-78
2021/12/06 03:32:16;;;;;;;12.50;11.03;;;0.80;99.90;;;-0.80;99.60;97394.34;5029107;28;20558;-78
2021/12/06 03:34:44;;;;;;;11.43;10.23;;;0.80;99.70;;;-1.00;100.00;97383.13;5024632;28;20452;-77
2021/12/06 03:37:11;;;;;;;17.90;12.40;;;0.70;99.80;;;-0.97;100.00;97390.78;5030163;28;20483;-78
2021/12/06 03:39:42;;;;;;;13.33;10.60;;;0.70;99.90;;;-0.87;99.83;97406.59;5033736;28;20474;-77
2021/12/06 03:42:14;;;;;;;15.37;11.03;;;0.70;99.90;;;-0.73;100.00;97403.34;5034416;28;20459;-79
2021/12/06 03:44:41;;;;;;;13.63;10.77;;;0.80;99.90;;;-0.89;100.00;97404.06;5027732;28;20470;-76
2021/12/06 03:47:12;;;;;;;13.17;10.80;;;0.80;99.90;;;-0.83;99.62;97412.38;5025244;28;20537;-78
2021/12/06 03:49:39;;;;;;;11.77;10.57;;;0.80;99.90;;;-1.31;99.69;97380.94;5027150;28;20439;-77
2021/12/06 03:52:07;;;;;;;13.50;10.43;;;0.60;97.80;;;-1.02;100.00;97414.28;5030378;28;20467;-79
2021/12/06 03:54:35;;;;;;;13.13;10.13;;;0.60;99.90;;;-1.22;100.00;97417.16;5028948;28;21028;-78
2021/12/06 03:57:03;;;;;;;15.70;10.20;;;0.50;99.90;;;-1.34;100.00;97421.03;5021784;28;20584;-78
2021/12/06 03:59:33;;;;;;;12.67;10.27;;;0.40;99.90;;;-1.52;100.00;97391.91;5032589;28;21248;-77
2021/12/06 04:02:00;;;;;;;12.07;10.50;;;0.30;99.90;;;-1.38;100.00;97419.69;5028957;28;20453;-77
2021/12/06 04:04:28;;;;;;;12.03;10.23;;;0.30;99.90;;;-1.53;100.00;97404.31;5013346;28;20461;-78
2021/12/06 04:06:57;;;;;;;16.83;11.50;;;0.30;99.90;;;-1.53;100.00;97412.28;5015991;28;20513;-78
2021/12/06 04:09:26;;;;;;;14.83;12.37;;;0.20;99.90;;;-1.41;100.00;97425.28;5023117;28;20478;-77
2021/12/06 04:11:53;;;;;;;16.10;11.77;;;0.20;99.90;;;-1.28;100.00;97431.03;5033091;28;20497;-79
2021/12/06 04:14:20;;;;;;;15.40;11.87;;;0.30;99.90;;;-1.23;100.00;97431.38;5031310;28;20529;-78
2021/12/06 04:16:50;;;;;;;13.50;11.77;;;0.40;99.90;;;-1.16;100.00;97419.16;5034592;28;20466;-78
2021/12/06 04:19:19;;;;;;;18.70;12.50;;;0.50;99.90;;;-1.28;100.00;97425.72;5034863;28;20534;-77
2021/12/06 04:21:47;;;;;;;14.67;12.30;;;0.40;99.90;;;-1.29;100.00;97424.03;5033398;28;21095;-79
2021/12/06 04:24:16;;;;;;;17.70;12.67;;;0.50;99.90;;;-1.59;100.00;97391.72;5034083;28;20804;-80
2021/12/06 04:26:45;;;;;;;12.33;11.03;;;0.40;99.90;;;-1.15;100.00;97444.69;5036725;28;20447;-78
2021/12/06 04:29:13;;;;;;;16.93;13.20;;;0.40;99.90;;;-1.10;100.00;97454.00;5034695;28;20494;-79
2021/12/06 04:31:47;;;;;;;15.37;11.93;;;0.50;99.90;;;-1.05;100.00;97451.72;5034871;28;20830;-78
2021/12/06 04:34:17;;;;;;;14.90;12.60;;;0.50;99.90;;;-1.08;99.77;97441.44;5030523;28;20474;-79
2021/12/06 04:36:45;;;;;;;16.90;12.87;;;0.60;99.90;;;-1.07;100.00;97453.69;5026898;28;20471;-78
2021/12/06 04:39:17;;;;;;;14.70;12.73;;;0.60;99.90;;;-1.36;100.00;97412.41;5025573;28;20475;-79
2021/12/06 04:41:47;;;;;;;20.57;13.63;;;0.50;99.90;;;-1.09;100.00;97445.88;5026779;28;20558;-79
2021/12/06 04:44:15;;;;;;;14.33;12.30;;;0.60;99.90;;;-1.17;100.00;97448.50;5029668;28;20466;-78
2021/12/06 04:46:43;;;;;;;15.63;13.00;;;0.50;99.90;;;-0.93;100.00;97468.19;5028352;28;20454;-80
2021/12/06 04:49:10;;;;;;;15.57;12.23;;;0.60;99.90;;;-0.94;100.00;97469.19;5025556;28;20536;-78
2021/12/06 04:51:52;;;;;;;15.67;12.60;;;0.60;99.90;;;-0.84;100.00;97471.72;5031175;28;20988;-77
2021/12/06 04:54:25;;;;;;;16.13;12.07;;;0.70;99.90;;;-0.80;99.94;97470.47;5030571;28;20469;-80
2021/12/06 04:57:05;;;;;;;18.13;13.20;;;0.70;99.90;;;-0.82;99.47;97469.78;5027601;28;20459;-78
2021/12/06 04:59:36;;;;;;;14.90;11.93;;;0.70;99.80;;;-0.97;100.00;97480.13;5025825;28;20546;-78
2021/12/06 05:02:10;;;;;;;17.13;12.60;;;0.60;99.30;;;-0.77;99.46;97491.38;5027315;28;20455;-79
2021/12/06 05:04:40;;;;;;;18.30;12.60;;;0.70;99.90;;;-0.79;99.36;97485.38;5047338;28;20446;-79
2021/12/06 05:07:15;;;;;;;16.40;12.47;;;0.80;99.30;;;-0.88;99.65;97480.00;5034483;28;20461;-80
2021/12/06 05:09:46;;;;;;;21.20;13.13;;;0.80;99.90;;;-0.84;99.25;97479.69;5024192;28;20903;-78
2021/12/06 05:12:17;;;;;;;14.43;11.97;;;0.80;99.60;;;-0.77;98.94;97502.78;5029670;28;20570;-79
2021/12/06 05:14:45;;;;;;;17.70;12.97;;;0.80;98.10;;;-0.79;98.69;97498.66;5030583;28;20486;-78
2021/12/06 05:17:12;;;;;;;14.07;12.67;;;0.80;97.30;;;-1.00;99.66;97502.47;5030407;28;20522;-78
2021/12/06 05:19:39;;;;;;;14.77;12.93;;;0.60;98.10;;;-0.98;100.00;97487.25;5027464;28;20454;-78
2021/12/06 05:22:08;;;;;;;15.80;14.03;;;0.70;99.90;;;-1.00;100.00;97491.84;5041908;28;20457;-78
2021/12/06 05:24:36;;;;;;;17.07;13.47;;;0.70;99.90;;;-1.21;100.00;97471.81;5037969;28;20459;-78
2021/12/06 05:27:05;;;;;;;16.80;13.13;;;0.60;99.90;;;-1.02;100.00;97517.69;5021363;28;20541;-79
2021/12/06 05:29:34;;;;;;;15.17;13.57;;;0.60;99.90;;;-0.90;100.00;97508.53;5050720;28;20446;-80
2021/12/06 05:32:02;;;;;;;14.73;13.23;;;0.70;99.90;;;-0.98;100.00;97504.97;5044184;28;20443;-78
2021/12/06 05:34:38;;;;;;;19.80;12.60;;;0.60;99.90;;;-0.42;100.00;97518.75;5053339;28;20455;-79
2021/12/06 05:37:09;;;;;;;18.57;13.93;;;1.00;99.90;;;-0.49;100.00;97515.91;5051641;28;20590;-78
2021/12/06 05:39:36;;;;;;;14.70;13.07;;;1.10;99.90;;;-0.36;100.00;97514.66;5053795;28;20502;-78
2021/12/06 05:42:07;;;;;;;22.10;15.43;;;1.20;99.90;;;0.06;100.00;97528.94;5042782;28;20447;-76
2021/12/06 05:44:35;;;;;;;15.70;12.87;;;1.40;99.90;;;-0.20;98.65;97497.97;5030491;28;20517;-77
2021/12/06 05:47:02;;;;;;;20.67;14.27;;;1.50;99.90;;;0.01;97.71;97526.78;5030377;28;20480;-77
2021/12/06 05:49:30;;;;;;;16.10;11.03;;;1.50;98.50;;;-0.24;97.24;97533.78;5030462;28;20950;-81
2021/12/06 05:51:58;;;;;;;17.50;11.57;;;1.40;95.20;;;-0.30;97.49;97528.13;5024042;28;20534;-76
2021/12/06 05:54:28;;;;;;;13.90;12.00;;;1.30;95.30;;;-0.30;97.11;97541.41;5029852;28;20487;-76
2021/12/06 05:56:57;;;;;;;14.20;11.87;;;1.30;95.60;;;-0.37;97.30;97553.66;5023892;28;20467;-76
2021/12/06 05:59:24;;;;;;;14.73;11.83;;;1.20;95.10;;;-0.48;97.73;97559.22;5027848;28;20482;-75
2021/12/06 06:01:54;;;;;;;14.13;12.53;;;1.10;95.50;;;-0.73;97.47;97522.75;5021662;28;20513;-75
2021/12/06 06:04:21;;;;;;;15.73;13.13;;;1.10;96.60;;;-0.40;98.07;97563.75;5034259;28;20456;-76
2021/12/06 06:06:49;;;;;;;19.97;15.13;;;1.10;97.20;;;-0.36;98.23;97547.34;5025922;28;20459;-77
2021/12/06 06:09:17;;;;;;;18.00;14.43;;;1.20;98.10;;;-0.36;97.99;97560.63;5053949;28;20455;-78
2021/12/06 06:11:46;;;;;;;20.70;15.90;;;1.10;97.30;;;-0.25;98.06;97559.50;5030331;28;20558;-68
2021/12/06 06:14:13;;;;;;;23.20;17.00;;;1.20;97.80;;;-0.40;97.89;97561.91;5020713;28;20451;-73
2021/12/06 06:16:47;;;;;;;18.30;15.13;;;1.20;96.40;;;-0.42;98.42;97558.56;5032747;28;20553;-72
2021/12/06 06:19:16;;;;;;;20.70;15.80;;;1.20;96.90;;;-0.54;98.67;97559.81;5023341;28;20566;-73
2021/12/06 06:21:43;;;;;;;23.47;17.00;;;1.10;96.30;;;-0.22;97.87;97575.13;5028786;28;20463;-73
2021/12/06 06:24:10;;;;;;;25.80;18.00;;;1.20;98.20;;;-0.21;97.89;97582.09;5025597;28;20468;-73
2021/12/06 06:26:37;;;;;;;22.73;17.90;;;1.30;97.50;;;-0.22;98.22;97580.44;5021378;28;20463;-72
2021/12/06 06:29:06;;;;;;;26.33;18.77;;;1.30;98.00;;;-0.29;98.54;97585.53;5021327;28;21578;-71
2021/12/06 06:31:34;;;;;;;29.00;20.80;;;1.30;97.90;;;-0.34;98.34;97590.50;5019407;28;20512;-72
2021/12/06 06:34:01;;;;;;;36.07;22.80;;;1.30;97.00;;;0.03;97.93;97595.66;5029531;28;20566;-72
2021/12/06 06:36:28;;;;;;;29.37;19.30;;;1.40;98.10;;;0.03;97.47;97593.00;5027933;28;20447;-71
2021/12/06 06:38:56;;;;;;;24.30;18.07;;;1.50;97.10;;;-0.25;97.75;97587.88;5027954;28;20516;-72
2021/12/06 06:41:24;;;;;;;27.93;18.03;;;1.40;95.60;;;-0.41;98.84;97597.41;5020035;28;20468;-73
2021/12/06 06:43:52;;;;;;;25.53;17.70;;;1.20;96.40;;;-0.11;100.00;97597.09;5021922;28;20478;-72
2021/12/06 06:46:20;;;;;;;24.17;17.93;;;1.30;99.90;;;-0.04;99.59;97604.28;5022329;28;20486;-69
2021/12/06 06:48:48;;;;;;;28.03;19.40;;;1.50;99.90;;;0.16;98.54;97606.69;5024682;28;21254;-70
2021/12/06 06:51:15;;;;;;;30.30;18.17;;;1.60;99.20;;;0.07;98.05;97605.81;5016928;28;20495;-75
2021/12/06 06:53:43;;;;;;;27.20;20.03;;;1.60;96.70;;;-0.03;97.40;97608.59;5027727;28;20456;-70
2021/12/06 06:56:10;;;;;;;29.90;19.93;;;1.60;95.30;;;-0.06;97.09;97608.91;5040273;28;20459;-70
2021/12/06 06:58:37;;;;;;;39.17;21.87;;;1.50;95.00;;;-0.11;97.66;97613.84;5021209;28;20581;-70
2021/12/06 07:01:05;;;;;;;39.83;22.80;;;1.50;95.40;;;-0.11;98.06;97613.84;5018581;28;20931;-73
2021/12/06 07:03:33;;;;;;;32.93;21.17;;;1.40;96.70;;;0.01;97.68;97617.09;5021241;28;20554;-71
2021/12/06 07:06:01;;;;;;;31.20;21.40;;;1.50;96.00;;;-0.04;97.53;97617.56;5019358;28;20459;-68
2021/12/06 07:08:28;;;;;;;33.93;22.37;;;1.50;95.70;;;-0.07;97.98;97630.31;5023279;28;20550;-68
2021/12/06 07:10:56;;;;;;;32.73;22.00;;;1.50;95.70;;;-0.25;98.78;97623.25;5019319;28;20513;-69
2021/12/06 07:13:26;;;;;;;28.03;21.07;;;1.40;96.20;;;-0.10;98.87;97636.75;5033519;28;20828;-68
2021/12/06 07:15:54;;;;;;;34.60;23.40;;;1.40;98.00;;;-0.19;98.59;97635.06;5015870;28;20450;-69
2021/12/06 07:18:22;;;;;;;38.27;23.30;;;1.40;97.60;;;-0.16;98.94;97642.72;5039501;28;20996;-69
2021/12/06 07:20:50;;;;;;;39.17;22.90;;;1.40;98.20;;;-0.13;98.95;97638.91;5019087;28;20980;-68
2021/12/06 07:23:18;;;;;;;33.43;21.43;;;1.40;98.40;;;-0.16;98.30;97648.84;5017589;28;20459;-69
2021/12/06 07:25:45;;;;;;;34.87;24.20;;;1.50;97.40;;;0.04;98.48;97653.13;5037508;28;20538;-72
2021/12/06 07:28:12;;;;;;;29.67;23.67;;;1.50;97.80;;;-0.27;98.37;97648.28;5022128;28;20537;-73
2021/12/06 07:30:39;;;;;;;27.13;20.60;;;1.40;96.60;;;-0.05;98.85;97645.13;5018762;28;20538;-74
2021/12/06 07:33:07;;;;;;;30.07;21.20;;;1.50;98.70;;;0.20;97.81;97653.19;5029036;28;20458;-74
2021/12/06 07:35:35;;;;;;;30.67;22.30;;;1.60;97.20;;;0.22;97.35;97656.53;5008211;28;20850;-74
2021/12/06 07:38:07;;;;;;;28.80;21.50;;;1.70;96.40;;;0.26;97.18;97657.06;5011237;28;21147;-73
2021/12/06 07:40:34;;;;;;;46.97;27.40;;;1.80;95.70;;;0.14;97.21;97667.13;5020520;28;21126;-72
2021/12/06 07:43:03;;;;;;;35.13;24.60;;;1.70;95.10;;;0.32;97.55;97666.22;5026562;28;20451;-74
2021/12/06 07:45:30;;;;;;;34.50;24.60;;;1.80;96.10;;;0.17;97.40;97674.78;5029777;28;20474;-75
2021/12/06 07:47:57;;;;;;;31.13;20.43;;;1.70;95.40;;;0.05;97.57;97660.09;5030372;28;21049;-74
2021/12/06 07:50:24;;;;;;;34.00;23.47;;;1.70;95.50;;;-0.05;97.74;97650.44;5028471;28;20456;-73
2021/12/06 07:52:53;;;;;;;85.60;27.03;;;1.60;95.70;;;0.12;97.85;97671.78;5022206;28;20478;-74
2021/12/06 07:55:26;;;;;;;118.63;26.33;;;1.70;97.00;;;0.04;98.04;97687.66;5021795;28;20468;-74
2021/12/06 07:57:56;;;;;;;54.33;25.63;;;1.60;95.70;;;0.02;98.15;97692.28;5022203;28;20789;-75
2021/12/06 08:00:25;;;;;;;60.77;23.47;;;1.60;95.90;;;0.06;97.69;97698.94;5026967;28;20469;-75
2021/12/06 08:02:53;;;;;;;33.90;22.03;;;1.60;97.10;;;-0.10;98.34;97694.38;5026700;28;21254;-73
2021/12/06 08:05:32;;;;;;;64.57;20.17;;;1.50;96.00;;;-0.25;97.78;97696.75;5023589;28;20471;-74
2021/12/06 08:08:04;;;;;;;29.50;19.13;;;1.40;95.20;;;-0.27;98.73;97680.13;5028104;28;21037;-75
2021/12/06 08:10:40;;;;;;;38.37;18.93;;;1.40;98.80;;;-0.16;98.48;97701.13;5021151;28;20550;-74
2021/12/06 08:13:08;;;;;;;36.83;19.70;;;1.40;97.50;;;-0.21;98.26;97690.16;5024706;28;20483;-75
2021/12/06 08:15:35;;;;;;;74.93;22.10;;;1.40;97.90;;;-0.05;97.99;97697.38;5023674;28;20469;-74
2021/12/06 08:18:03;;;;;;;55.53;21.13;;;1.50;96.80;;;-0.09;98.91;97712.78;5023032;28;20466;-73
2021/12/06 08:20:30;;;;;;;57.53;21.33;;;1.50;96.80;;;0.02;98.11;97694.94;5026178;28;20535;-74
2021/12/06 08:22:57;;;;;;;80.60;22.40;;;1.60;96.80;;;-0.04;97.67;97694.59;5031902;28;20875;-75
2021/12/06 08:25:25;;;;;;;44.13;20.23;;;1.60;95.50;;;0.27;96.72;97695.94;5028053;28;20458;-75
2021/12/06 08:27:54;;;;;;;32.67;20.57;;;1.70;95.50;;;0.27;96.48;97696.78;5030954;28;20561;-75
2021/12/06 08:30:24;;;;;;;64.97;21.47;;;1.90;93.90;;;0.17;95.58;97695.22;5026795;28;20826;-74
2021/12/06 08:32:54;;;;;;;120.37;22.43;;;1.90;92.50;;;-0.22;96.66;97704.44;5022646;28;20474;-75
2021/12/06 08:35:21;;;;;;;90.67;21.43;;;1.60;93.10;;;-0.20;97.23;97711.22;5025608;28;20451;-73
2021/12/06 08:37:49;;;;;;;68.73;21.20;;;1.50;94.40;;;-0.27;98.26;97717.31;5025273;28;20482;-74
2021/12/06 08:40:18;;;;;;;33.20;19.40;;;1.30;96.60;;;-0.20;98.80;97726.34;5024298;28;20451;-74
2021/12/06 08:42:45;;;;;;;66.10;21.57;;;1.40;97.90;;;-0.08;98.37;97732.25;5026763;28;20460;-76
2021/12/06 08:45:16;;;;;;;38.07;21.00;;;1.50;97.50;;;0.20;97.99;97706.34;5018879;28;20450;-82
2021/12/06 08:47:44;;;;;;;40.50;19.80;;;1.80;97.80;;;0.47;95.74;97727.63;5024148;28;20474;-74
2021/12/06 08:50:17;;;;;;;49.27;19.97;;;2.00;94.40;;;0.53;95.20;97733.13;5019422;28;21269;-74
2021/12/06 08:52:46;;;;;;;125.97;23.97;;;2.10;92.60;;;0.21;95.01;97729.28;5022490;28;20470;-74
2021/12/06 08:55:14;;;;;;;47.60;19.60;;;1.90;92.00;;;-0.20;96.70;97684.66;5027201;28;20494;-74
2021/12/06 08:57:43;;;;;;;174.43;27.50;;;1.70;93.70;;;0.04;96.65;97740.78;5026502;28;20479;-73
2021/12/06 09:00:18;;;;;;;91.13;21.93;;;1.70;93.80;;;0.25;96.25;97738.63;5023183;28;21046;-74
2021/12/06 09:02:46;;;;;;;37.93;22.40;;;1.80;94.20;;;0.34;96.67;97741.31;5020813;28;20459;-74
2021/12/06 09:05:14;;;;;;;52.47;21.47;;;1.80;95.30;;;0.20;96.60;97732.91;5019097;28;20462;-74
2021/12/06 09:07:41;;;;;;;40.60;20.40;;;1.80;94.60;;;0.58;95.54;97737.94;5014601;28;20463;-74
2021/12/06 09:10:12;;;;;;;109.17;23.47;;;2.00;93.60;;;0.49;94.17;97747.72;5036338;28;20505;-75
2021/12/06 09:12:41;;;;;;;109.00;23.50;;;2.10;91.70;;;0.24;94.20;97760.88;5028676;28;20470;-75
2021/12/06 09:15:15;;;;;;;65.50;19.30;;;1.90;91.40;;;0.10;95.90;97759.59;5027881;28;20455;-75
2021/12/06 09:17:43;;;;;;;114.70;22.77;;;1.70;92.60;;;-0.22;96.22;97758.34;5019660;28;20457;-75
2021/12/06 09:20:13;;;;;;;73.87;20.23;;;1.60;93.00;;;-0.27;97.70;97762.44;5018446;28;20455;-73
2021/12/06 09:22:41;;;;;;;41.00;20.97;;;1.50;94.90;;;0.08;96.87;97753.59;5026865;28;20606;-74
2021/12/06 09:25:11;;;;;;;185.57;27.73;;;1.50;96.30;;;0.25;96.30;97762.53;5026237;28;20555;-75
2021/12/06 09:27:39;;;;;;;44.63;20.47;;;1.70;94.40;;;0.51;95.52;97766.19;5030904;28;20463;-74
2021/12/06 09:30:12;;;;;;;47.17;20.97;;;1.90;93.80;;;0.50;95.11;97768.00;5022872;28;20570;-75
2021/12/06 09:32:41;;;;;;;53.87;19.17;;;2.00;92.80;;;0.07;95.80;97751.09;5027198;28;20466;-74
2021/12/06 09:35:12;;;;;;;36.80;18.70;;;1.90;92.00;;;0.14;96.16;97765.44;5025842;28;20467;-75
2021/12/06 09:37:40;;;;;;;35.97;17.80;;;1.80;93.10;;;0.37;95.37;97767.56;5024998;28;20536;-75
2021/12/06 09:40:10;;;;;;;34.90;17.40;;;1.90;92.60;;;-0.02;94.65;97745.75;5024473;28;20464;-72
2021/12/06 09:42:40;;;;;;;79.57;20.20;;;1.80;91.70;;;0.26;93.99;97773.97;5024327;28;20462;-74
2021/12/06 09:45:11;;;;;;;36.47;18.63;;;1.80;91.40;;;-0.03;94.83;97748.53;5023533;28;21278;-77
2021/12/06 09:47:48;;;;;;;91.67;21.60;;;1.80;91.80;;;0.17;94.80;97773.09;5025713;28;20455;-75
2021/12/06 09:50:17;;;;;;;36.70;17.83;;;1.70;92.00;;;0.48;94.32;97761.19;5021656;28;20477;-74
2021/12/06 09:52:44;;;;;;;40.37;18.70;;;1.90;92.70;;;0.50;93.72;97759.19;5027736;28;20466;-75
2021/12/06 09:55:12;;;;;;;48.63;18.13;;;2.00;91.70;;;0.24;93.10;97742.28;5025349;28;21128;-75
2021/12/06 09:57:39;;;;;;;55.40;19.50;;;2.00;90.30;;;0.20;93.47;97732.91;5024902;28;20451;-77
2021/12/06 10:00:13;;;;;;;35.77;17.77;;;2.00;90.90;;;0.50;93.11;97772.50;5027242;28;20466;-75
2021/12/06 10:02:42;;;;;;;28.80;18.20;;;2.10;90.40;;;0.55;93.40;97771.03;5032352;28;20455;-75
2021/12/06 10:05:11;;;;;;;27.67;18.20;;;2.10;90.60;;;0.79;93.46;97774.78;5022487;28;20448;-74
2021/12/06 10:07:39;;;;;;;29.77;18.50;;;2.20;91.40;;;0.92;92.56;97773.53;5028562;28;20471;-74
2021/12/06 10:10:09;;;;;;;41.07;20.07;;;2.40;90.40;;;0.91;92.04;97771.84;5028269;28;20543;-77
2021/12/06 10:12:36;;;;;;;29.63;18.53;;;2.50;89.90;;;0.82;92.54;97771.81;5034738;28;20494;-74
2021/12/06 10:15:08;;;;;;;36.37;19.30;;;2.40;89.90;;;0.80;92.89;97779.13;5022959;28;20466;-75
2021/12/06 10:17:37;;;;;;;40.87;19.13;;;2.30;90.50;;;0.78;92.29;97765.16;5023002;28;20495;-75
2021/12/06 10:20:09;;;;;;;28.70;18.13;;;2.30;89.90;;;0.59;93.11;97757.41;5025530;28;20460;-75
2021/12/06 10:22:36;;;;;;;22.80;16.80;;;2.20;90.40;;;0.62;92.17;97751.78;5026401;28;20881;-75
2021/12/06 10:25:06;;;;;;;24.20;15.87;;;2.20;89.70;;;0.55;92.00;97756.88;5026120;28;20468;-76
2021/12/06 10:27:34;;;;;;;25.80;16.67;;;2.10;89.60;;;0.51;91.65;97720.97;5027486;28;20506;-75